createdAt,value
2022-09-20T00:01:30.599Z,12.49
2022-09-20T00:03:59.409Z,12.44
2022-09-20T00:06:29.110Z,12.39
2022-09-20T00:08:56.683Z,12.32
2022-09-20T00:11:29.225Z,11.83
2022-09-20T00:13:58.745Z,11.89
2022-09-20T00:16:31.319Z,11.94
2022-09-20T00:19:00.119Z,12.13
2022-09-20T00:21:28.538Z,11.73
2022-09-20T00:23:56.171Z,12.06
2022-09-20T00:26:23.096Z,12.03
2022-09-20T00:28:49.748Z,11.99
2022-09-20T00:31:16.347Z,11.96
2022-09-20T00:33:42.992Z,11.90
2022-09-20T00:36:09.427Z,11.87
2022-09-20T00:38:35.875Z,11.83
2022-09-20T00:41:02.406Z,11.82
2022-09-20T00:43:44.253Z,11.76
2022-09-20T00:46:39.288Z,11.75
2022-09-20T00:49:16.728Z,11.71
2022-09-20T00:51:47.048Z,11.62
2022-09-20T00:54:20.316Z,11.63
2022-09-20T00:56:47.279Z,11.65
2022-09-20T00:59:46.669Z,11.62
2022-09-20T01:02:18.222Z,11.43
2022-09-20T01:04:44.914Z,11.56
2022-09-20T01:07:14.040Z,11.22
2022-09-20T01:09:40.599Z,11.50
2022-09-20T01:12:11.469Z,11.45
2022-09-20T01:14:39.196Z,11.45
2022-09-20T01:17:06.613Z,11.39
2022-09-20T01:20:10.624Z,11.39
2022-09-20T01:23:01.647Z,11.36
2022-09-20T01:26:01.660Z,11.32
2022-09-20T01:28:29.226Z,11.29
2022-09-20T01:31:23.514Z,11.22
2022-09-20T01:34:01.634Z,11.19
2022-09-20T01:36:52.882Z,11.15
2022-09-20T01:39:40.726Z,11.12
2022-09-20T01:42:12.064Z,11.08
2022-09-20T01:44:47.613Z,10.68
2022-09-20T01:47:44.250Z,11.02
2022-09-20T01:50:36.795Z,10.99
2022-09-20T01:53:18.452Z,10.96
2022-09-20T01:55:55.625Z,10.95
2022-09-20T01:58:46.965Z,10.93
2022-09-20T02:01:52.052Z,10.72
2022-09-20T02:04:36.975Z,10.86
2022-09-20T02:07:19.052Z,10.66
2022-09-20T02:10:06.843Z,10.80
2022-09-20T02:12:48.437Z,10.76
2022-09-20T02:15:40.737Z,10.72
2022-09-20T02:18:31.228Z,10.72
2022-09-20T02:21:28.452Z,10.37
2022-09-20T02:24:06.732Z,10.63
2022-09-20T02:26:48.054Z,10.40
2022-09-20T02:29:33.071Z,10.24
2022-09-20T02:31:59.602Z,10.53
2022-09-20T02:34:44.479Z,10.49
2022-09-20T02:37:35.136Z,10.46
2022-09-20T02:40:13.692Z,10.42
2022-09-20T02:43:04.821Z,10.00
2022-09-20T02:46:12.338Z,10.04
2022-09-20T02:49:16.267Z,10.32
2022-09-20T02:51:57.562Z,10.30
2022-09-20T02:54:45.144Z,10.00
2022-09-20T02:57:18.254Z,10.22
2022-09-20T02:59:56.756Z,9.82
2022-09-20T03:02:45.090Z,10.25
2022-09-20T03:05:20.736Z,10.24
2022-09-20T03:08:25.389Z,10.20
2022-09-20T03:11:03.875Z,10.20
2022-09-20T03:13:42.669Z,10.19
2022-09-20T03:16:13.668Z,9.94
2022-09-20T03:19:31.488Z,10.15
2022-09-20T03:22:15.087Z,9.75
2022-09-20T03:24:41.470Z,10.12
2022-09-20T03:27:24.987Z,9.66
2022-09-20T03:30:03.394Z,10.04
2022-09-20T03:33:01.679Z,10.00
2022-09-20T03:35:59.018Z,9.96
2022-09-20T03:38:53.207Z,9.92
2022-09-20T03:41:28.852Z,9.90
2022-09-20T03:43:58.039Z,9.86
2022-09-20T03:46:29.397Z,9.83
2022-09-20T03:49:04.755Z,9.79
2022-09-20T03:51:56.436Z,9.68
2022-09-20T03:54:38.184Z,9.72
2022-09-20T03:57:10.374Z,9.70
2022-09-20T03:59:42.866Z,9.70
2022-09-20T04:02:31.338Z,9.69
2022-09-20T04:05:05.383Z,9.58
2022-09-20T04:07:37.606Z,9.69
2022-09-20T04:10:20.607Z,9.69
2022-09-20T04:13:00.648Z,9.71
2022-09-20T04:15:27.056Z,9.73
2022-09-20T04:18:22.095Z,9.41
2022-09-20T04:21:30.182Z,9.80
2022-09-20T04:24:17.703Z,9.83
2022-09-20T04:26:49.382Z,9.71
2022-09-20T04:29:24.739Z,9.90
2022-09-20T04:31:59.388Z,9.79
2022-09-20T04:34:48.538Z,9.93
2022-09-20T04:37:36.915Z,9.69
2022-09-20T04:40:14.203Z,9.68
2022-09-20T04:42:40.690Z,10.06
2022-09-20T04:45:24.466Z,9.72
2022-09-20T04:48:28.235Z,10.12
2022-09-20T04:51:29.972Z,10.17
2022-09-20T04:54:22.380Z,10.21
2022-09-20T04:57:24.072Z,10.24
2022-09-20T05:00:08.674Z,9.90
2022-09-20T05:02:35.118Z,10.29
2022-09-20T05:05:31.885Z,10.31
2022-09-20T05:08:17.130Z,10.35
2022-09-20T05:11:03.137Z,10.39
2022-09-20T05:13:50.348Z,10.32
2022-09-20T05:16:19.834Z,10.44
2022-09-20T05:19:04.893Z,10.47
2022-09-20T05:21:43.476Z,10.48
2022-09-20T05:24:55.604Z,10.50
2022-09-20T05:27:34.246Z,10.52
2022-09-20T05:30:29.931Z,10.49
2022-09-20T05:33:17.859Z,10.54
2022-09-20T05:36:06.266Z,10.54
2022-09-20T05:38:46.017Z,10.52
2022-09-20T05:41:30.144Z,10.15
2022-09-20T05:44:31.397Z,10.59
2022-09-20T05:47:32.039Z,10.62
2022-09-20T05:50:29.669Z,10.64
2022-09-20T05:53:21.882Z,10.60
2022-09-20T05:56:13.124Z,10.68
2022-09-20T05:59:11.361Z,10.69
2022-09-20T06:01:56.964Z,10.68
2022-09-20T06:04:36.935Z,10.43
2022-09-20T06:07:15.196Z,10.35
2022-09-20T06:09:56.629Z,10.74
2022-09-20T06:12:58.248Z,10.78
2022-09-20T06:15:46.026Z,10.81
2022-09-20T06:18:24.661Z,10.86
2022-09-20T06:21:25.889Z,10.53
2022-09-20T06:23:58.423Z,10.86
2022-09-20T06:26:29.227Z,10.99
2022-09-20T06:29:00.454Z,11.01
2022-09-20T06:31:27.542Z,11.06
2022-09-20T06:33:56.826Z,11.10
2022-09-20T06:36:33.324Z,11.15
2022-09-20T06:39:16.564Z,11.18
2022-09-20T06:41:43.800Z,11.22
2022-09-20T06:44:11.237Z,11.25
2022-09-20T06:46:37.686Z,11.29
2022-09-20T06:49:04.559Z,11.28
2022-09-20T06:51:35.986Z,11.36
2022-09-20T06:54:03.795Z,11.28
2022-09-20T06:56:32.664Z,11.38
2022-09-20T06:58:59.136Z,11.51
2022-09-20T07:01:30.538Z,11.55
2022-09-20T07:03:58.079Z,11.60
2022-09-20T07:06:24.551Z,11.68
2022-09-20T07:08:51.022Z,11.73
2022-09-20T07:11:17.938Z,11.79
2022-09-20T07:13:49.424Z,11.78
2022-09-20T07:16:17.355Z,11.86
2022-09-20T07:18:43.842Z,11.90
2022-09-20T07:21:15.933Z,11.93
2022-09-20T07:23:42.484Z,12.01
2022-09-20T07:26:25.301Z,12.02
2022-09-20T07:28:52.158Z,12.12
2022-09-20T07:31:20.339Z,12.19
2022-09-20T07:33:47.213Z,12.14
2022-09-20T07:36:14.253Z,12.31
2022-09-20T07:38:41.588Z,12.42
2022-09-20T07:41:09.469Z,12.51
2022-09-20T07:43:36.500Z,12.61
2022-09-20T07:46:03.294Z,12.70
2022-09-20T07:48:32.819Z,12.78
2022-09-20T07:51:08.458Z,12.52
2022-09-20T07:53:36.063Z,12.95
2022-09-20T07:56:20.702Z,12.98
2022-09-20T07:58:51.475Z,13.16
2022-09-20T08:01:19.247Z,13.26
2022-09-20T08:03:45.674Z,13.37
2022-09-20T08:06:12.884Z,13.48
2022-09-20T08:08:40.414Z,13.62
2022-09-20T08:11:10.283Z,13.72
2022-09-20T08:14:07.347Z,13.56
2022-09-20T08:16:39.500Z,13.96
2022-09-20T08:19:06.052Z,14.13
2022-09-20T08:21:34.907Z,13.91
2022-09-20T08:24:01.708Z,14.34
2022-09-20T08:26:29.832Z,14.07
2022-09-20T08:28:58.445Z,14.58
2022-09-20T08:31:28.164Z,14.41
2022-09-20T08:33:54.675Z,14.84
2022-09-20T08:36:23.839Z,14.91
2022-09-20T08:42:03.108Z,15.08
2022-09-20T08:44:48.521Z,14.92
2022-09-20T08:47:26.315Z,15.35
2022-09-20T08:49:56.882Z,15.44
2022-09-20T08:52:29.969Z,15.54
2022-09-20T08:54:57.439Z,15.57
2022-09-20T08:57:27.664Z,15.74
2022-09-20T08:59:54.429Z,15.83
2022-09-20T09:02:22.038Z,15.91
2022-09-20T09:04:50.182Z,15.65
2022-09-20T09:07:20.796Z,16.06
2022-09-20T09:09:49.877Z,15.85
2022-09-20T09:12:29.761Z,16.13
2022-09-20T09:15:05.606Z,15.99
2022-09-20T09:17:32.125Z,16.37
2022-09-20T09:20:06.829Z,16.09
2022-09-20T09:22:42.283Z,16.51
2022-09-20T09:25:14.561Z,16.60
2022-09-20T09:27:53.566Z,16.58
2022-09-20T09:30:28.790Z,16.61
2022-09-20T09:33:19.821Z,16.79
2022-09-20T09:36:14.532Z,16.86
2022-09-20T09:38:46.219Z,16.93
2022-09-20T09:41:21.043Z,17.00
2022-09-20T09:43:57.962Z,17.08
2022-09-20T09:46:25.156Z,17.17
2022-09-20T09:49:16.957Z,16.73
2022-09-20T09:52:02.877Z,17.33
2022-09-20T09:54:36.037Z,17.13
2022-09-20T09:57:21.203Z,17.55
2022-09-20T10:00:16.684Z,17.69
2022-09-20T10:03:17.582Z,17.91
2022-09-20T10:06:07.956Z,17.98
2022-09-20T10:08:52.748Z,18.24
2022-09-20T10:11:37.798Z,18.35
2022-09-20T10:14:36.599Z,18.47
2022-09-20T10:17:38.676Z,18.56
2022-09-20T10:20:44.213Z,18.69
2022-09-20T10:26:41.456Z,18.97
2022-09-20T10:29:29.278Z,19.05
2022-09-20T10:32:32.816Z,19.12
2022-09-20T10:35:24.944Z,18.93
2022-09-20T10:38:13.173Z,19.34
2022-09-20T10:40:51.831Z,19.49
2022-09-20T10:43:38.043Z,19.26
2022-09-20T10:46:34.904Z,19.63
2022-09-20T10:49:16.256Z,19.67
2022-09-20T10:52:17.908Z,19.68
2022-09-20T10:54:55.318Z,19.40
2022-09-20T10:57:49.772Z,19.69
2022-09-20T11:00:25.110Z,19.74
2022-09-20T11:03:08.400Z,19.49
2022-09-20T11:05:40.616Z,19.83
2022-09-20T11:08:16.208Z,19.89
2022-09-20T11:10:48.775Z,19.90
2022-09-20T11:13:38.150Z,19.68
2022-09-20T11:16:18.346Z,19.75
2022-09-20T11:19:16.952Z,19.85
2022-09-20T11:21:52.739Z,19.95
2022-09-20T11:24:25.013Z,20.37
2022-09-20T11:26:55.192Z,20.37
2022-09-20T11:29:41.340Z,20.42
2022-09-20T11:32:16.971Z,20.54
2022-09-20T11:34:51.652Z,20.50
2022-09-20T11:37:19.281Z,20.55
2022-09-20T11:39:48.878Z,20.57
2022-09-20T11:42:19.510Z,20.61
2022-09-20T11:44:46.472Z,20.75
2022-09-20T11:47:53.221Z,20.86
2022-09-20T11:50:41.493Z,20.96
2022-09-20T11:53:41.199Z,20.86
2022-09-20T11:56:17.885Z,21.02
2022-09-20T11:58:50.418Z,21.16
2022-09-20T12:01:27.940Z,21.24
2022-09-20T12:04:20.496Z,21.31
2022-09-20T12:06:46.132Z,21.38
2022-09-20T12:09:30.307Z,21.41
2022-09-20T12:11:57.515Z,21.47
2022-09-20T12:14:27.122Z,21.58
2022-09-20T12:16:54.761Z,21.67
2022-09-20T12:19:21.155Z,21.71
2022-09-20T12:21:59.622Z,21.76
2022-09-20T12:24:32.220Z,21.82
2022-09-20T12:26:59.696Z,21.88
2022-09-20T12:29:26.056Z,21.93
2022-09-20T12:31:55.059Z,21.90
2022-09-20T12:34:24.461Z,21.72
2022-09-20T12:36:50.843Z,21.96
2022-09-20T12:39:23.410Z,21.93
2022-09-20T12:41:52.863Z,21.96
2022-09-20T12:44:28.125Z,22.00
2022-09-20T12:46:59.559Z,21.99
2022-09-20T12:49:28.746Z,22.08
2022-09-20T12:51:55.263Z,22.10
2022-09-20T12:54:21.800Z,22.11
2022-09-20T12:56:48.343Z,22.16
2022-09-20T12:59:26.700Z,21.90
2022-09-20T13:01:53.303Z,22.09
2022-09-20T13:04:54.505Z,22.14
2022-09-20T13:07:40.052Z,22.17
2022-09-20T13:10:30.316Z,22.20
2022-09-20T13:13:15.605Z,21.99
2022-09-20T13:15:48.748Z,22.23
2022-09-20T13:18:16.994Z,22.29
2022-09-20T13:20:43.810Z,22.28
2022-09-20T13:23:23.990Z,22.01
2022-09-20T13:25:50.803Z,22.34
2022-09-20T13:28:38.907Z,22.18
2022-09-20T13:31:20.707Z,22.52
2022-09-20T13:33:48.195Z,22.66
2022-09-20T13:36:14.977Z,22.76
2022-09-20T13:38:41.698Z,22.95
2022-09-20T13:41:10.306Z,23.00
2022-09-20T13:43:45.322Z,23.00
2022-09-20T13:46:15.786Z,23.12
2022-09-20T13:48:43.196Z,23.12
2022-09-20T13:51:28.680Z,22.81
2022-09-20T13:54:20.718Z,23.09
2022-09-20T13:56:47.634Z,23.07
2022-09-20T13:59:18.976Z,23.02
2022-09-20T14:01:51.650Z,22.92
2022-09-20T14:04:24.348Z,22.62
2022-09-20T14:06:53.516Z,22.31
2022-09-20T14:09:29.845Z,22.65
2022-09-20T14:11:58.510Z,22.61
2022-09-20T14:14:25.947Z,22.52
2022-09-20T14:16:55.161Z,22.50
2022-09-20T14:19:31.625Z,22.40
2022-09-20T14:22:05.177Z,22.37
2022-09-20T14:24:36.647Z,22.31
2022-09-20T14:27:15.043Z,22.30
2022-09-20T14:29:46.999Z,22.26
2022-09-20T14:32:19.222Z,22.26
2022-09-20T14:34:55.647Z,22.28
2022-09-20T14:37:29.615Z,22.24
2022-09-20T14:39:59.171Z,22.05
2022-09-20T14:42:36.688Z,22.33
2022-09-20T14:45:05.001Z,21.49
2022-09-20T14:47:39.680Z,22.03
2022-09-20T14:50:28.408Z,22.33
2022-09-20T14:53:09.997Z,22.30
2022-09-20T14:55:38.290Z,22.33
2022-09-20T14:58:10.697Z,22.21
2022-09-20T15:00:57.842Z,22.33
2022-09-20T15:03:28.867Z,22.37
2022-09-20T15:05:55.584Z,22.36
2022-09-20T15:08:22.911Z,22.41
2022-09-20T15:10:49.399Z,22.42
2022-09-20T15:13:15.845Z,22.40
2022-09-20T15:15:42.523Z,22.32
2022-09-20T15:18:42.171Z,22.30
2022-09-20T15:21:08.957Z,22.26
2022-09-20T15:23:35.452Z,22.19
2022-09-20T15:26:01.926Z,22.11
2022-09-20T15:28:28.743Z,22.05
2022-09-20T15:30:55.191Z,22.03
2022-09-20T15:33:21.943Z,21.97
2022-09-20T15:35:48.954Z,21.93
2022-09-20T15:38:17.736Z,21.83
2022-09-20T15:40:46.857Z,21.79
2022-09-20T15:43:22.107Z,21.71
2022-09-20T15:46:00.303Z,21.33
2022-09-20T15:48:29.465Z,21.65
2022-09-20T15:51:08.701Z,21.60
2022-09-20T15:53:40.337Z,21.30
2022-09-20T15:56:18.782Z,21.51
2022-09-20T15:58:46.959Z,21.48
2022-09-20T16:01:14.248Z,21.46
2022-09-20T16:03:40.928Z,21.45
2022-09-20T16:06:07.737Z,21.43
2022-09-20T16:08:39.555Z,21.45
2022-09-20T16:11:07.839Z,21.47
2022-09-20T16:13:34.405Z,21.49
2022-09-20T16:16:01.325Z,21.49
2022-09-20T16:18:28.922Z,21.52
2022-09-20T16:20:55.367Z,21.54
2022-09-20T16:23:25.847Z,21.55
2022-09-20T16:25:52.549Z,21.57
2022-09-20T16:28:18.954Z,21.55
2022-09-20T16:30:56.041Z,21.46
2022-09-20T16:33:22.602Z,21.57
2022-09-20T16:35:49.158Z,21.56
2022-09-20T16:38:15.640Z,21.56
2022-09-20T16:40:42.172Z,21.53
2022-09-20T16:43:08.642Z,21.50
2022-09-20T16:45:35.957Z,21.46
2022-09-20T16:48:06.405Z,21.52
2022-09-20T16:50:34.871Z,21.54
2022-09-20T16:53:01.283Z,21.53
2022-09-20T16:55:27.760Z,21.53
2022-09-20T16:57:54.168Z,21.51
2022-09-20T17:00:20.649Z,21.49
2022-09-20T17:02:50.459Z,21.38
2022-09-20T17:05:17.395Z,21.45
2022-09-20T17:07:43.849Z,21.43
2022-09-20T17:10:10.820Z,21.41
2022-09-20T17:12:37.273Z,21.37
2022-09-20T17:15:03.963Z,21.33
2022-09-20T17:17:30.442Z,21.24
2022-09-20T17:19:56.899Z,21.23
2022-09-20T17:22:23.357Z,21.19
2022-09-20T17:24:49.846Z,21.12
2022-09-20T17:27:16.299Z,21.10
2022-09-20T17:29:42.713Z,21.05
2022-09-20T17:32:09.184Z,21.00
2022-09-20T17:34:35.735Z,20.95
2022-09-20T17:37:02.157Z,20.91
2022-09-20T17:39:28.784Z,20.88
2022-09-20T17:41:55.222Z,20.84
2022-09-20T17:44:21.680Z,20.68
2022-09-20T17:46:50.129Z,20.47
2022-09-20T17:49:19.515Z,20.65
2022-09-20T17:51:47.073Z,20.57
2022-09-20T17:54:14.450Z,20.52
2022-09-20T17:56:46.007Z,20.48
2022-09-20T17:59:13.753Z,20.43
2022-09-20T18:01:40.215Z,20.36
2022-09-20T18:04:07.610Z,20.31
2022-09-20T18:06:44.508Z,19.89
2022-09-20T18:09:14.379Z,19.88
2022-09-20T18:11:46.408Z,20.05
2022-09-20T18:14:13.221Z,20.05
2022-09-20T18:16:40.086Z,19.98
2022-09-20T18:19:08.254Z,19.61
2022-09-20T18:21:36.094Z,19.89
2022-09-20T18:24:05.619Z,19.48
2022-09-20T18:26:32.368Z,19.72
2022-09-20T18:28:58.808Z,19.69
2022-09-20T18:31:27.795Z,19.26
2022-09-20T18:33:55.948Z,19.58
2022-09-20T18:36:23.260Z,19.52
2022-09-20T18:38:49.765Z,19.47
2022-09-20T18:41:16.264Z,19.40
2022-09-20T18:43:46.408Z,19.03
2022-09-20T18:46:13.053Z,19.16
2022-09-20T18:48:39.589Z,19.19
2022-09-20T18:51:08.118Z,18.75
2022-09-20T18:53:36.547Z,18.96
2022-09-20T18:56:07.331Z,18.94
2022-09-20T18:58:34.958Z,18.98
2022-09-20T19:01:17.603Z,18.95
2022-09-20T19:04:00.166Z,18.85
2022-09-20T19:06:35.981Z,18.86
2022-09-20T19:09:08.210Z,18.83
2022-09-20T19:11:42.143Z,18.80
2022-09-20T19:14:37.182Z,18.75
2022-09-20T19:17:04.536Z,18.75
2022-09-20T19:19:44.157Z,18.70
2022-09-20T19:22:50.629Z,18.44
2022-09-20T19:25:32.680Z,18.06
2022-09-20T19:27:59.284Z,18.61
2022-09-20T19:30:26.100Z,18.58
2022-09-20T19:32:52.867Z,18.56
2022-09-20T19:35:24.900Z,18.20
2022-09-20T19:38:02.839Z,18.55
2022-09-20T19:40:44.808Z,18.54
2022-09-20T19:43:29.741Z,18.49
2022-09-20T19:46:16.210Z,18.36
2022-09-20T19:49:12.668Z,18.45
2022-09-20T19:51:41.201Z,18.08
2022-09-20T19:54:11.063Z,18.39
2022-09-20T19:56:56.924Z,18.28
2022-09-20T19:59:25.726Z,18.06
2022-09-20T20:01:53.200Z,18.30
2022-09-20T20:04:20.773Z,18.28
2022-09-20T20:07:02.150Z,18.29
2022-09-20T20:10:01.001Z,18.27
2022-09-20T20:12:57.641Z,18.23
2022-09-20T20:15:44.612Z,18.20
2022-09-20T20:18:23.199Z,18.16
2022-09-20T20:20:53.421Z,18.04
2022-09-20T20:23:41.459Z,18.04
2022-09-20T20:26:09.919Z,18.05
2022-09-20T20:28:37.246Z,18.03
2022-09-20T20:31:04.642Z,18.02
2022-09-20T20:33:31.317Z,18.00
2022-09-20T20:36:00.160Z,17.67
2022-09-20T20:38:27.776Z,17.95
2022-09-20T20:41:02.786Z,17.92
2022-09-20T20:43:29.407Z,17.90
2022-09-20T20:45:56.151Z,17.90
2022-09-20T20:48:22.623Z,17.89
2022-09-20T20:50:59.111Z,17.43
2022-09-20T20:53:29.528Z,17.73
2022-09-20T20:56:01.213Z,17.79
2022-09-20T20:58:31.817Z,17.77
2022-09-20T21:01:13.400Z,17.72
2022-09-20T21:03:41.599Z,17.64
2022-09-20T21:06:09.030Z,17.57
2022-09-20T21:08:38.090Z,17.29
2022-09-20T21:11:08.001Z,17.64
2022-09-20T21:13:34.932Z,17.66
2022-09-20T21:16:15.556Z,17.65
2022-09-20T21:18:44.253Z,17.29
2022-09-20T21:21:16.566Z,17.33
2022-09-20T21:23:43.971Z,17.63
2022-09-20T21:26:10.419Z,17.63
2022-09-20T21:28:41.617Z,17.64
2022-09-20T21:31:09.677Z,17.63
2022-09-20T21:33:38.766Z,17.62
2022-09-20T21:36:06.038Z,17.60
2022-09-20T21:38:32.525Z,17.53
2022-09-20T21:41:07.560Z,17.18
2022-09-20T21:43:35.414Z,17.57
2022-09-20T21:46:02.359Z,17.54
2022-09-20T21:48:29.342Z,17.53
2022-09-20T21:51:03.993Z,17.30
2022-09-20T21:53:30.888Z,17.51
2022-09-20T21:56:01.840Z,17.51
2022-09-20T21:58:28.516Z,17.42
2022-09-20T22:00:59.895Z,17.41
2022-09-20T22:03:30.031Z,17.49
2022-09-20T22:05:56.475Z,17.44
2022-09-20T22:08:23.104Z,17.49
2022-09-20T22:10:58.430Z,17.31
2022-09-20T22:13:24.942Z,17.46
2022-09-20T22:15:51.618Z,17.25
2022-09-20T22:18:18.272Z,17.39
2022-09-20T22:20:44.704Z,17.45
2022-09-20T22:23:11.859Z,17.40
2022-09-20T22:25:38.284Z,17.43
2022-09-20T22:28:04.746Z,17.19
2022-09-20T22:30:31.198Z,17.39
2022-09-20T22:32:57.644Z,17.36
2022-09-20T22:35:24.108Z,17.38
2022-09-20T22:37:50.539Z,17.19
2022-09-20T22:40:16.995Z,17.33
2022-09-20T22:42:43.493Z,17.36
2022-09-20T22:45:10.472Z,17.35
2022-09-20T22:47:36.929Z,17.34
2022-09-20T22:50:03.513Z,17.33
2022-09-20T22:52:30.014Z,17.31
2022-09-20T22:54:56.435Z,17.29
2022-09-20T22:57:22.919Z,17.26
2022-09-20T22:59:49.313Z,17.23
2022-09-20T23:02:15.785Z,16.99
2022-09-20T23:04:42.222Z,17.21
2022-09-20T23:07:08.687Z,17.20
2022-09-20T23:09:35.107Z,17.20
2022-09-20T23:12:01.743Z,17.08
2022-09-20T23:22:08.775Z,17.10
2022-09-20T23:30:24.501Z,17.05
2022-09-20T23:32:53.439Z,16.95
2022-09-20T23:35:19.855Z,17.03
2022-09-20T23:37:46.323Z,17.03
2022-09-20T23:40:12.871Z,17.04
2022-09-20T23:42:39.338Z,17.04
2022-09-20T23:45:06.414Z,17.04
2022-09-20T23:47:32.842Z,17.05
2022-09-20T23:49:59.274Z,17.04
2022-09-20T23:52:25.734Z,17.03
2022-09-20T23:54:52.129Z,17.03
2022-09-20T23:57:18.609Z,17.01
2022-09-20T23:59:45.085Z,17.04
